sensor_id;sensor_type;location;lat;lon;timestamp;P1;durP1;ratioP1;P2;durP2;ratioP2
15177;SDS011;7689;53.612;-2.416;2022-10-12T00:02:07;10.37;;;4.53;;
15177;SDS011;7689;53.612;-2.416;2022-10-12T00:04:33;4.73;;;4.17;;
15177;SDS011;7689;53.612;-2.416;2022-10-12T00:06:58;10.07;;;4.63;;
15177;SDS011;7689;53.612;-2.416;2022-10-12T00:09:24;7.37;;;4.37;;
15177;SDS011;7689;53.612;-2.416;2022-10-12T00:11:50;8.30;;;4.47;;
15177;SDS011;7689;53.612;-2.416;2022-10-12T00:14:15;6.60;;;4.20;;
15177;SDS011;7689;53.612;-2.416;2022-10-12T00:16:41;11.13;;;4.27;;
15177;SDS011;7689;53.612;-2.416;2022-10-12T00:19:06;7.43;;;4.37;;
15177;SDS011;7689;53.612;-2.416;2022-10-12T00:21:36;8.70;;;4.57;;
15177;SDS011;7689;53.612;-2.416;2022-10-12T00:24:03;7.87;;;4.63;;
15177;SDS011;7689;53.612;-2.416;2022-10-12T00:26:29;8.80;;;4.10;;
15177;SDS011;7689;53.612;-2.416;2022-10-12T00:28:55;9.90;;;4.33;;
15177;SDS011;7689;53.612;-2.416;2022-10-12T00:31:22;10.43;;;4.70;;
15177;SDS011;7689;53.612;-2.416;2022-10-12T00:33:49;11.43;;;4.77;;
15177;SDS011;7689;53.612;-2.416;2022-10-12T00:39:04;12.97;;;4.10;;
15177;SDS011;7689;53.612;-2.416;2022-10-12T00:41:33;9.53;;;4.67;;
15177;SDS011;7689;53.612;-2.416;2022-10-12T00:44:29;9.33;;;4.43;;
15177;SDS011;7689;53.612;-2.416;2022-10-12T00:47:02;12.27;;;4.70;;
15177;SDS011;7689;53.612;-2.416;2022-10-12T00:49:58;13.43;;;4.43;;
15177;SDS011;7689;53.612;-2.416;2022-10-12T00:52:27;12.23;;;4.73;;
15177;SDS011;7689;53.612;-2.416;2022-10-12T00:54:57;11.97;;;4.63;;
15177;SDS011;7689;53.612;-2.416;2022-10-12T00:57:24;7.70;;;4.40;;
15177;SDS011;7689;53.612;-2.416;2022-10-12T00:59:53;14.23;;;4.73;;
15177;SDS011;7689;53.612;-2.416;2022-10-12T01:02:25;8.90;;;3.93;;
15177;SDS011;7689;53.612;-2.416;2022-10-12T01:04:53;9.73;;;4.60;;
15177;SDS011;7689;53.612;-2.416;2022-10-12T01:07:20;11.17;;;5.00;;
15177;SDS011;7689;53.612;-2.416;2022-10-12T01:09:46;11.73;;;4.67;;
15177;SDS011;7689;53.612;-2.416;2022-10-12T01:12:12;10.13;;;4.10;;
15177;SDS011;7689;53.612;-2.416;2022-10-12T01:14:40;9.63;;;4.33;;
15177;SDS011;7689;53.612;-2.416;2022-10-12T01:34:04;8.90;;;4.20;;
15177;SDS011;7689;53.612;-2.416;2022-10-12T01:36:51;7.07;;;3.93;;
15177;SDS011;7689;53.612;-2.416;2022-10-12T01:39:29;7.50;;;3.80;;
15177;SDS011;7689;53.612;-2.416;2022-10-12T01:42:06;7.57;;;4.10;;
15177;SDS011;7689;53.612;-2.416;2022-10-12T01:44:36;7.50;;;3.70;;
15177;SDS011;7689;53.612;-2.416;2022-10-12T01:47:02;9.77;;;4.00;;
15177;SDS011;7689;53.612;-2.416;2022-10-12T01:49:29;7.33;;;3.67;;
15177;SDS011;7689;53.612;-2.416;2022-10-12T01:57:21;9.33;;;4.13;;
15177;SDS011;7689;53.612;-2.416;2022-10-12T02:02:37;10.30;;;3.93;;
15177;SDS011;7689;53.612;-2.416;2022-10-12T02:05:25;5.77;;;3.37;;
15177;SDS011;7689;53.612;-2.416;2022-10-12T02:10:49;8.03;;;3.70;;
15177;SDS011;7689;53.612;-2.416;2022-10-12T02:13:28;12.37;;;3.47;;
15177;SDS011;7689;53.612;-2.416;2022-10-12T02:15:57;8.17;;;3.30;;
15177;SDS011;7689;53.612;-2.416;2022-10-12T02:18:26;10.00;;;3.63;;
15177;SDS011;7689;53.612;-2.416;2022-10-12T02:20:53;5.83;;;3.20;;
15177;SDS011;7689;53.612;-2.416;2022-10-12T02:23:22;7.80;;;3.20;;
15177;SDS011;7689;53.612;-2.416;2022-10-12T02:25:49;11.60;;;4.07;;
15177;SDS011;7689;53.612;-2.416;2022-10-12T02:28:17;6.57;;;3.13;;
15177;SDS011;7689;53.612;-2.416;2022-10-12T02:33:40;9.13;;;3.27;;
15177;SDS011;7689;53.612;-2.416;2022-10-12T02:36:11;8.70;;;3.40;;
15177;SDS011;7689;53.612;-2.416;2022-10-12T02:38:57;7.57;;;3.40;;
15177;SDS011;7689;53.612;-2.416;2022-10-12T02:41:28;5.43;;;3.83;;
15177;SDS011;7689;53.612;-2.416;2022-10-12T02:44:02;7.43;;;3.37;;
15177;SDS011;7689;53.612;-2.416;2022-10-12T02:46:32;9.83;;;3.70;;
15177;SDS011;7689;53.612;-2.416;2022-10-12T02:49:00;6.53;;;3.63;;
15177;SDS011;7689;53.612;-2.416;2022-10-12T02:51:27;8.33;;;3.17;;
15177;SDS011;7689;53.612;-2.416;2022-10-12T02:53:53;7.57;;;2.90;;
15177;SDS011;7689;53.612;-2.416;2022-10-12T02:56:20;7.57;;;3.17;;
15177;SDS011;7689;53.612;-2.416;2022-10-12T02:58:46;12.00;;;3.00;;
15177;SDS011;7689;53.612;-2.416;2022-10-12T03:01:13;6.03;;;3.00;;
15177;SDS011;7689;53.612;-2.416;2022-10-12T03:03:40;6.57;;;2.80;;
15177;SDS011;7689;53.612;-2.416;2022-10-12T03:06:06;4.70;;;2.97;;
15177;SDS011;7689;53.612;-2.416;2022-10-12T03:08:32;11.70;;;3.40;;
15177;SDS011;7689;53.612;-2.416;2022-10-12T03:11:01;14.03;;;3.63;;
15177;SDS011;7689;53.612;-2.416;2022-10-12T03:13:27;11.53;;;3.57;;
15177;SDS011;7689;53.612;-2.416;2022-10-12T03:15:59;5.57;;;2.67;;
15177;SDS011;7689;53.612;-2.416;2022-10-12T03:18:29;6.13;;;2.73;;
15177;SDS011;7689;53.612;-2.416;2022-10-12T03:20:55;6.10;;;2.97;;
15177;SDS011;7689;53.612;-2.416;2022-10-12T03:23:21;8.43;;;3.10;;
15177;SDS011;7689;53.612;-2.416;2022-10-12T03:25:46;7.27;;;3.13;;
15177;SDS011;7689;53.612;-2.416;2022-10-12T03:28:12;6.67;;;2.90;;
15177;SDS011;7689;53.612;-2.416;2022-10-12T03:30:38;6.80;;;3.10;;
15177;SDS011;7689;53.612;-2.416;2022-10-12T03:33:03;6.87;;;2.97;;
15177;SDS011;7689;53.612;-2.416;2022-10-12T03:35:29;10.60;;;3.27;;
15177;SDS011;7689;53.612;-2.416;2022-10-12T03:37:55;9.87;;;3.20;;
15177;SDS011;7689;53.612;-2.416;2022-10-12T03:40:20;7.40;;;2.60;;
15177;SDS011;7689;53.612;-2.416;2022-10-12T03:42:46;6.13;;;2.50;;
15177;SDS011;7689;53.612;-2.416;2022-10-12T03:45:12;9.27;;;3.27;;
15177;SDS011;7689;53.612;-2.416;2022-10-12T03:47:37;9.67;;;2.90;;
15177;SDS011;7689;53.612;-2.416;2022-10-12T03:50:03;8.20;;;3.03;;
15177;SDS011;7689;53.612;-2.416;2022-10-12T03:52:29;5.90;;;3.03;;
15177;SDS011;7689;53.612;-2.416;2022-10-12T03:54:55;9.00;;;3.00;;
15177;SDS011;7689;53.612;-2.416;2022-10-12T03:57:21;9.17;;;3.07;;
15177;SDS011;7689;53.612;-2.416;2022-10-12T03:59:47;7.20;;;3.20;;
15177;SDS011;7689;53.612;-2.416;2022-10-12T04:02:12;6.30;;;3.00;;
15177;SDS011;7689;53.612;-2.416;2022-10-12T04:04:38;10.27;;;3.10;;
15177;SDS011;7689;53.612;-2.416;2022-10-12T04:07:04;9.63;;;3.60;;
15177;SDS011;7689;53.612;-2.416;2022-10-12T04:09:29;9.17;;;3.10;;
15177;SDS011;7689;53.612;-2.416;2022-10-12T04:11:55;8.43;;;3.03;;
15177;SDS011;7689;53.612;-2.416;2022-10-12T04:14:20;10.30;;;3.23;;
15177;SDS011;7689;53.612;-2.416;2022-10-12T04:16:46;7.57;;;2.87;;
15177;SDS011;7689;53.612;-2.416;2022-10-12T04:19:12;9.83;;;3.23;;
15177;SDS011;7689;53.612;-2.416;2022-10-12T04:21:38;5.70;;;2.80;;
15177;SDS011;7689;53.612;-2.416;2022-10-12T04:24:04;6.27;;;3.13;;
15177;SDS011;7689;53.612;-2.416;2022-10-12T04:26:30;8.37;;;2.90;;
15177;SDS011;7689;53.612;-2.416;2022-10-12T04:28:55;6.17;;;3.07;;
15177;SDS011;7689;53.612;-2.416;2022-10-12T04:31:21;10.13;;;3.13;;
15177;SDS011;7689;53.612;-2.416;2022-10-12T04:33:47;11.77;;;3.20;;
15177;SDS011;7689;53.612;-2.416;2022-10-12T04:36:12;8.47;;;3.70;;
15177;SDS011;7689;53.612;-2.416;2022-10-12T04:38:38;8.67;;;3.17;;
15177;SDS011;7689;53.612;-2.416;2022-10-12T04:41:04;8.40;;;3.50;;
15177;SDS011;7689;53.612;-2.416;2022-10-12T04:43:30;6.67;;;3.47;;
15177;SDS011;7689;53.612;-2.416;2022-10-12T04:45:56;4.00;;;3.07;;
15177;SDS011;7689;53.612;-2.416;2022-10-12T04:48:24;7.73;;;3.40;;
15177;SDS011;7689;53.612;-2.416;2022-10-12T04:50:50;4.97;;;2.70;;
15177;SDS011;7689;53.612;-2.416;2022-10-12T04:53:16;9.30;;;2.93;;
15177;SDS011;7689;53.612;-2.416;2022-10-12T04:55:42;8.30;;;3.60;;
15177;SDS011;7689;53.612;-2.416;2022-10-12T04:58:07;11.73;;;3.27;;
15177;SDS011;7689;53.612;-2.416;2022-10-12T05:00:33;9.97;;;3.30;;
15177;SDS011;7689;53.612;-2.416;2022-10-12T05:02:58;8.73;;;3.57;;
15177;SDS011;7689;53.612;-2.416;2022-10-12T05:05:24;7.33;;;3.10;;
15177;SDS011;7689;53.612;-2.416;2022-10-12T05:07:50;8.83;;;2.87;;
15177;SDS011;7689;53.612;-2.416;2022-10-12T05:10:16;8.87;;;3.00;;
15177;SDS011;7689;53.612;-2.416;2022-10-12T05:12:42;9.03;;;3.23;;
15177;SDS011;7689;53.612;-2.416;2022-10-12T05:15:08;13.03;;;3.30;;
15177;SDS011;7689;53.612;-2.416;2022-10-12T05:17:35;4.93;;;2.77;;
15177;SDS011;7689;53.612;-2.416;2022-10-12T05:20:00;10.17;;;3.47;;
15177;SDS011;7689;53.612;-2.416;2022-10-12T05:22:26;5.73;;;2.73;;
15177;SDS011;7689;53.612;-2.416;2022-10-12T05:24:52;4.73;;;2.73;;
15177;SDS011;7689;53.612;-2.416;2022-10-12T05:27:17;9.13;;;3.30;;
15177;SDS011;7689;53.612;-2.416;2022-10-12T05:29:43;9.43;;;3.73;;
15177;SDS011;7689;53.612;-2.416;2022-10-12T05:32:09;9.90;;;3.67;;
15177;SDS011;7689;53.612;-2.416;2022-10-12T05:34:34;7.73;;;3.40;;
15177;SDS011;7689;53.612;-2.416;2022-10-12T05:37:00;7.47;;;3.03;;
15177;SDS011;7689;53.612;-2.416;2022-10-12T05:39:25;6.37;;;3.47;;
15177;SDS011;7689;53.612;-2.416;2022-10-12T05:41:51;7.07;;;3.43;;
15177;SDS011;7689;53.612;-2.416;2022-10-12T05:44:18;7.27;;;3.13;;
15177;SDS011;7689;53.612;-2.416;2022-10-12T05:46:44;6.13;;;2.97;;
15177;SDS011;7689;53.612;-2.416;2022-10-12T05:49:10;5.93;;;2.93;;
15177;SDS011;7689;53.612;-2.416;2022-10-12T05:51:35;6.40;;;3.27;;
15177;SDS011;7689;53.612;-2.416;2022-10-12T05:54:03;11.23;;;3.53;;
15177;SDS011;7689;53.612;-2.416;2022-10-12T05:56:29;8.57;;;2.87;;
15177;SDS011;7689;53.612;-2.416;2022-10-12T05:58:55;8.93;;;3.30;;
15177;SDS011;7689;53.612;-2.416;2022-10-12T06:01:20;9.97;;;3.50;;
15177;SDS011;7689;53.612;-2.416;2022-10-12T06:03:46;12.60;;;3.77;;
15177;SDS011;7689;53.612;-2.416;2022-10-12T06:06:12;7.83;;;3.40;;
15177;SDS011;7689;53.612;-2.416;2022-10-12T06:08:38;6.93;;;3.50;;
15177;SDS011;7689;53.612;-2.416;2022-10-12T06:11:03;9.43;;;3.80;;
15177;SDS011;7689;53.612;-2.416;2022-10-12T06:13:29;13.17;;;3.80;;
15177;SDS011;7689;53.612;-2.416;2022-10-12T06:15:55;11.47;;;3.77;;
15177;SDS011;7689;53.612;-2.416;2022-10-12T06:18:21;6.53;;;3.20;;
15177;SDS011;7689;53.612;-2.416;2022-10-12T06:20:47;8.93;;;3.13;;
15177;SDS011;7689;53.612;-2.416;2022-10-12T06:23:15;7.70;;;3.20;;
15177;SDS011;7689;53.612;-2.416;2022-10-12T06:25:41;8.43;;;4.10;;
15177;SDS011;7689;53.612;-2.416;2022-10-12T06:28:07;8.37;;;3.67;;
15177;SDS011;7689;53.612;-2.416;2022-10-12T06:30:32;11.30;;;4.30;;
15177;SDS011;7689;53.612;-2.416;2022-10-12T06:32:58;10.57;;;3.80;;
15177;SDS011;7689;53.612;-2.416;2022-10-12T06:35:24;9.40;;;3.87;;
15177;SDS011;7689;53.612;-2.416;2022-10-12T06:37:50;10.53;;;3.80;;
15177;SDS011;7689;53.612;-2.416;2022-10-12T06:40:16;13.13;;;3.60;;
15177;SDS011;7689;53.612;-2.416;2022-10-12T06:42:43;7.33;;;3.10;;
15177;SDS011;7689;53.612;-2.416;2022-10-12T06:45:09;8.97;;;3.63;;
15177;SDS011;7689;53.612;-2.416;2022-10-12T06:47:35;13.87;;;3.77;;
15177;SDS011;7689;53.612;-2.416;2022-10-12T06:50:01;11.47;;;3.90;;
15177;SDS011;7689;53.612;-2.416;2022-10-12T06:52:27;12.50;;;3.87;;
15177;SDS011;7689;53.612;-2.416;2022-10-12T06:54:52;11.40;;;3.40;;
15177;SDS011;7689;53.612;-2.416;2022-10-12T06:57:18;7.13;;;3.50;;
15177;SDS011;7689;53.612;-2.416;2022-10-12T06:59:44;9.43;;;3.97;;
15177;SDS011;7689;53.612;-2.416;2022-10-12T07:02:10;10.50;;;3.50;;
15177;SDS011;7689;53.612;-2.416;2022-10-12T07:04:35;7.37;;;3.93;;
15177;SDS011;7689;53.612;-2.416;2022-10-12T07:07:01;8.57;;;3.50;;
15177;SDS011;7689;53.612;-2.416;2022-10-12T07:09:27;7.40;;;3.53;;
15177;SDS011;7689;53.612;-2.416;2022-10-12T07:11:54;6.53;;;3.80;;
15177;SDS011;7689;53.612;-2.416;2022-10-12T07:14:19;7.77;;;4.07;;
15177;SDS011;7689;53.612;-2.416;2022-10-12T07:16:45;9.70;;;3.47;;
15177;SDS011;7689;53.612;-2.416;2022-10-12T07:19:11;12.33;;;4.37;;
15177;SDS011;7689;53.612;-2.416;2022-10-12T07:21:37;10.40;;;4.37;;
15177;SDS011;7689;53.612;-2.416;2022-10-12T07:24:03;7.30;;;3.40;;
15177;SDS011;7689;53.612;-2.416;2022-10-12T07:26:29;8.77;;;3.97;;
15177;SDS011;7689;53.612;-2.416;2022-10-12T07:28:55;7.90;;;4.03;;
15177;SDS011;7689;53.612;-2.416;2022-10-12T07:31:22;10.10;;;3.97;;
15177;SDS011;7689;53.612;-2.416;2022-10-12T07:33:48;10.60;;;3.80;;
15177;SDS011;7689;53.612;-2.416;2022-10-12T07:36:14;12.93;;;4.37;;
15177;SDS011;7689;53.612;-2.416;2022-10-12T07:38:39;10.73;;;3.87;;
15177;SDS011;7689;53.612;-2.416;2022-10-12T07:41:08;12.70;;;3.70;;
15177;SDS011;7689;53.612;-2.416;2022-10-12T07:43:34;9.30;;;4.10;;
15177;SDS011;7689;53.612;-2.416;2022-10-12T07:46:00;7.57;;;3.93;;
15177;SDS011;7689;53.612;-2.416;2022-10-12T07:48:27;10.83;;;4.63;;
15177;SDS011;7689;53.612;-2.416;2022-10-12T07:50:52;11.17;;;3.97;;
15177;SDS011;7689;53.612;-2.416;2022-10-12T07:53:18;7.87;;;3.80;;
15177;SDS011;7689;53.612;-2.416;2022-10-12T07:55:44;8.63;;;3.83;;
15177;SDS011;7689;53.612;-2.416;2022-10-12T07:58:09;9.87;;;4.17;;
15177;SDS011;7689;53.612;-2.416;2022-10-12T08:00:36;8.20;;;3.80;;
15177;SDS011;7689;53.612;-2.416;2022-10-12T08:03:02;8.83;;;4.13;;
15177;SDS011;7689;53.612;-2.416;2022-10-12T08:05:28;13.17;;;5.00;;
15177;SDS011;7689;53.612;-2.416;2022-10-12T08:07:54;7.93;;;3.60;;
15177;SDS011;7689;53.612;-2.416;2022-10-12T08:10:20;11.07;;;3.63;;
15177;SDS011;7689;53.612;-2.416;2022-10-12T08:12:46;8.23;;;3.73;;
15177;SDS011;7689;53.612;-2.416;2022-10-12T08:15:12;14.03;;;3.57;;
15177;SDS011;7689;53.612;-2.416;2022-10-12T08:17:38;6.20;;;3.90;;
15177;SDS011;7689;53.612;-2.416;2022-10-12T08:20:05;7.07;;;3.83;;
15177;SDS011;7689;53.612;-2.416;2022-10-12T08:22:31;9.70;;;4.07;;
15177;SDS011;7689;53.612;-2.416;2022-10-12T08:24:56;11.70;;;4.50;;
15177;SDS011;7689;53.612;-2.416;2022-10-12T08:27:22;6.13;;;3.73;;
15177;SDS011;7689;53.612;-2.416;2022-10-12T08:29:48;7.47;;;4.07;;
15177;SDS011;7689;53.612;-2.416;2022-10-12T08:32:13;9.30;;;3.87;;
15177;SDS011;7689;53.612;-2.416;2022-10-12T08:34:39;9.43;;;3.87;;
15177;SDS011;7689;53.612;-2.416;2022-10-12T08:37:05;6.27;;;3.80;;
15177;SDS011;7689;53.612;-2.416;2022-10-12T08:39:30;8.07;;;3.70;;
15177;SDS011;7689;53.612;-2.416;2022-10-12T08:42:39;12.97;;;4.60;;
15177;SDS011;7689;53.612;-2.416;2022-10-12T08:44:54;11.73;;;3.70;;
15177;SDS011;7689;53.612;-2.416;2022-10-12T08:50:11;6.13;;;3.80;;
15177;SDS011;7689;53.612;-2.416;2022-10-12T08:52:47;13.13;;;4.27;;
15177;SDS011;7689;53.612;-2.416;2022-10-12T08:57:57;14.40;;;4.57;;
15177;SDS011;7689;53.612;-2.416;2022-10-12T09:00:23;9.47;;;4.30;;
15177;SDS011;7689;53.612;-2.416;2022-10-12T09:05:43;9.40;;;3.80;;
15177;SDS011;7689;53.612;-2.416;2022-10-12T09:11:26;12.10;;;3.87;;
15177;SDS011;7689;53.612;-2.416;2022-10-12T09:14:16;9.93;;;4.00;;
15177;SDS011;7689;53.612;-2.416;2022-10-12T09:16:48;8.13;;;4.20;;
15177;SDS011;7689;53.612;-2.416;2022-10-12T09:19:20;8.07;;;4.10;;
15177;SDS011;7689;53.612;-2.416;2022-10-12T09:21:48;11.37;;;3.83;;
15177;SDS011;7689;53.612;-2.416;2022-10-12T09:24:21;13.07;;;4.20;;
15177;SDS011;7689;53.612;-2.416;2022-10-12T09:26:52;10.43;;;4.10;;
15177;SDS011;7689;53.612;-2.416;2022-10-12T09:29:25;9.37;;;3.90;;
15177;SDS011;7689;53.612;-2.416;2022-10-12T09:32:00;7.20;;;3.83;;
15177;SDS011;7689;53.612;-2.416;2022-10-12T09:34:38;10.60;;;4.50;;
15177;SDS011;7689;53.612;-2.416;2022-10-12T09:37:04;12.10;;;4.90;;
15177;SDS011;7689;53.612;-2.416;2022-10-12T09:39:34;12.60;;;4.83;;
15177;SDS011;7689;53.612;-2.416;2022-10-12T09:42:01;10.93;;;4.80;;
15177;SDS011;7689;53.612;-2.416;2022-10-12T09:44:31;12.97;;;5.07;;
15177;SDS011;7689;53.612;-2.416;2022-10-12T09:47:05;15.10;;;6.83;;
15177;SDS011;7689;53.612;-2.416;2022-10-12T09:49:53;11.43;;;6.37;;
15177;SDS011;7689;53.612;-2.416;2022-10-12T09:52:41;10.55;;;6.30;;
15177;SDS011;7689;53.612;-2.416;2022-10-12T09:57:38;13.93;;;5.63;;
15177;SDS011;7689;53.612;-2.416;2022-10-12T10:00:28;10.80;;;5.70;;
15177;SDS011;7689;53.612;-2.416;2022-10-12T10:02:54;12.07;;;5.90;;
15177;SDS011;7689;53.612;-2.416;2022-10-12T10:05:24;11.50;;;5.80;;
15177;SDS011;7689;53.612;-2.416;2022-10-12T10:10:54;10.50;;;4.93;;
15177;SDS011;7689;53.612;-2.416;2022-10-12T10:13:25;8.77;;;5.40;;
15177;SDS011;7689;53.612;-2.416;2022-10-12T10:16:07;11.10;;;4.80;;
15177;SDS011;7689;53.612;-2.416;2022-10-12T10:18:38;10.17;;;4.70;;
15177;SDS011;7689;53.612;-2.416;2022-10-12T10:21:09;8.50;;;4.87;;
15177;SDS011;7689;53.612;-2.416;2022-10-12T10:23:41;12.63;;;5.30;;
15177;SDS011;7689;53.612;-2.416;2022-10-12T10:26:16;11.27;;;5.07;;
15177;SDS011;7689;53.612;-2.416;2022-10-12T10:28:44;10.10;;;4.43;;
15177;SDS011;7689;53.612;-2.416;2022-10-12T10:33:37;8.05;;;5.07;;
15177;SDS011;7689;53.612;-2.416;2022-10-12T10:36:23;11.90;;;5.50;;
15177;SDS011;7689;53.612;-2.416;2022-10-12T10:39:04;8.20;;;5.07;;
15177;SDS011;7689;53.612;-2.416;2022-10-12T10:41:34;11.88;;;5.25;;
15177;SDS011;7689;53.612;-2.416;2022-10-12T10:44:04;8.17;;;5.13;;
15177;SDS011;7689;53.612;-2.416;2022-10-12T10:46:43;8.25;;;4.47;;
15177;SDS011;7689;53.612;-2.416;2022-10-12T10:49:11;15.82;;;5.25;;
15177;SDS011;7689;53.612;-2.416;2022-10-12T10:51:52;11.25;;;4.88;;
15177;SDS011;7689;53.612;-2.416;2022-10-12T10:56:48;9.98;;;5.50;;
15177;SDS011;7689;53.612;-2.416;2022-10-12T10:59:50;13.63;;;5.47;;
15177;SDS011;7689;53.612;-2.416;2022-10-12T11:05:13;8.73;;;4.77;;
15177;SDS011;7689;53.612;-2.416;2022-10-12T11:07:53;13.25;;;5.35;;
15177;SDS011;7689;53.612;-2.416;2022-10-12T11:13:05;10.30;;;5.15;;
15177;SDS011;7689;53.612;-2.416;2022-10-12T11:15:39;9.20;;;5.00;;
15177;SDS011;7689;53.612;-2.416;2022-10-12T11:20:54;9.60;;;5.38;;
15177;SDS011;7689;53.612;-2.416;2022-10-12T11:26:36;11.80;;;5.03;;
15177;SDS011;7689;53.612;-2.416;2022-10-12T11:29:05;11.60;;;4.50;;
15177;SDS011;7689;53.612;-2.416;2022-10-12T11:31:35;10.40;;;5.03;;
15177;SDS011;7689;53.612;-2.416;2022-10-12T11:34:04;9.05;;;4.60;;
15177;SDS011;7689;53.612;-2.416;2022-10-12T11:36:32;12.55;;;4.90;;
15177;SDS011;7689;53.612;-2.416;2022-10-12T11:39:04;8.70;;;4.88;;
15177;SDS011;7689;53.612;-2.416;2022-10-12T11:44:41;9.05;;;4.70;;
15177;SDS011;7689;53.612;-2.416;2022-10-12T11:50:14;7.43;;;4.05;;
15177;SDS011;7689;53.612;-2.416;2022-10-12T11:52:52;8.48;;;4.53;;
15177;SDS011;7689;53.612;-2.416;2022-10-12T11:58:04;9.00;;;4.88;;
15177;SDS011;7689;53.612;-2.416;2022-10-12T12:03:37;9.57;;;4.88;;
15177;SDS011;7689;53.612;-2.416;2022-10-12T12:08:56;10.85;;;4.70;;
15177;SDS011;7689;53.612;-2.416;2022-10-12T12:11:33;10.07;;;4.40;;
15177;SDS011;7689;53.612;-2.416;2022-10-12T12:16:49;14.82;;;4.82;;
15177;SDS011;7689;53.612;-2.416;2022-10-12T12:19:36;11.77;;;5.43;;
15177;SDS011;7689;53.612;-2.416;2022-10-12T12:22:17;10.15;;;5.57;;
15177;SDS011;7689;53.612;-2.416;2022-10-12T12:30:24;8.15;;;4.75;;
15177;SDS011;7689;53.612;-2.416;2022-10-12T12:33:06;6.82;;;4.50;;
15177;SDS011;7689;53.612;-2.416;2022-10-12T12:35:56;13.85;;;4.90;;
15177;SDS011;7689;53.612;-2.416;2022-10-12T12:38:31;11.82;;;5.18;;
15177;SDS011;7689;53.612;-2.416;2022-10-12T12:41:04;8.32;;;4.63;;
15177;SDS011;7689;53.612;-2.416;2022-10-12T12:43:36;8.50;;;4.90;;
15177;SDS011;7689;53.612;-2.416;2022-10-12T12:46:09;11.52;;;4.95;;
15177;SDS011;7689;53.612;-2.416;2022-10-12T12:51:05;9.82;;;4.88;;
15177;SDS011;7689;53.612;-2.416;2022-10-12T12:53:50;7.07;;;4.15;;
15177;SDS011;7689;53.612;-2.416;2022-10-12T12:56:50;9.45;;;4.22;;
15177;SDS011;7689;53.612;-2.416;2022-10-12T12:59:53;5.40;;;3.42;;
15177;SDS011;7689;53.612;-2.416;2022-10-12T13:19:12;9.93;;;3.90;;
15177;SDS011;7689;53.612;-2.416;2022-10-12T13:21:39;10.57;;;4.25;;
15177;SDS011;7689;53.612;-2.416;2022-10-12T13:26:47;11.55;;;4.57;;
15177;SDS011;7689;53.612;-2.416;2022-10-12T13:29:20;9.13;;;4.13;;
15177;SDS011;7689;53.612;-2.416;2022-10-12T13:32:05;6.78;;;4.05;;
15177;SDS011;7689;53.612;-2.416;2022-10-12T13:35:00;8.65;;;4.82;;
15177;SDS011;7689;53.612;-2.416;2022-10-12T13:37:30;15.23;;;4.85;;
15177;SDS011;7689;53.612;-2.416;2022-10-12T13:39:57;8.43;;;4.78;;
15177;SDS011;7689;53.612;-2.416;2022-10-12T13:42:24;9.15;;;4.95;;
15177;SDS011;7689;53.612;-2.416;2022-10-12T13:44:53;11.88;;;5.18;;
15177;SDS011;7689;53.612;-2.416;2022-10-12T13:47:24;11.82;;;5.40;;
15177;SDS011;7689;53.612;-2.416;2022-10-12T13:49:51;11.85;;;5.05;;
15177;SDS011;7689;53.612;-2.416;2022-10-12T13:52:20;10.38;;;5.30;;
15177;SDS011;7689;53.612;-2.416;2022-10-12T13:54:52;6.80;;;5.03;;
15177;SDS011;7689;53.612;-2.416;2022-10-12T13:57:35;10.05;;;5.32;;
15177;SDS011;7689;53.612;-2.416;2022-10-12T14:02:40;14.02;;;6.15;;
15177;SDS011;7689;53.612;-2.416;2022-10-12T14:05:18;8.73;;;5.65;;
15177;SDS011;7689;53.612;-2.416;2022-10-12T14:07:46;10.43;;;5.85;;
15177;SDS011;7689;53.612;-2.416;2022-10-12T14:10:17;8.63;;;5.45;;
15177;SDS011;7689;53.612;-2.416;2022-10-12T14:12:47;6.68;;;5.10;;
15177;SDS011;7689;53.612;-2.416;2022-10-12T14:15:15;10.07;;;6.00;;
15177;SDS011;7689;53.612;-2.416;2022-10-12T14:17:43;9.45;;;5.70;;
15177;SDS011;7689;53.612;-2.416;2022-10-12T14:22:50;9.27;;;6.28;;
15177;SDS011;7689;53.612;-2.416;2022-10-12T14:25:17;14.88;;;6.88;;
15177;SDS011;7689;53.612;-2.416;2022-10-12T14:27:45;10.25;;;6.78;;
15177;SDS011;7689;53.612;-2.416;2022-10-12T14:30:18;11.48;;;6.53;;
15177;SDS011;7689;53.612;-2.416;2022-10-12T14:32:46;11.38;;;6.90;;
15177;SDS011;7689;53.612;-2.416;2022-10-12T14:37:42;12.07;;;6.57;;
15177;SDS011;7689;53.612;-2.416;2022-10-12T14:40:29;11.70;;;6.88;;
15177;SDS011;7689;53.612;-2.416;2022-10-12T14:43:00;13.25;;;6.82;;
15177;SDS011;7689;53.612;-2.416;2022-10-12T14:45:33;13.45;;;6.80;;
15177;SDS011;7689;53.612;-2.416;2022-10-12T14:48:00;11.73;;;7.40;;
15177;SDS011;7689;53.612;-2.416;2022-10-12T14:50:27;13.55;;;7.05;;
15177;SDS011;7689;53.612;-2.416;2022-10-12T14:52:56;12.65;;;7.03;;
15177;SDS011;7689;53.612;-2.416;2022-10-12T14:55:30;10.15;;;7.85;;
15177;SDS011;7689;53.612;-2.416;2022-10-12T14:57:57;11.57;;;7.63;;
15177;SDS011;7689;53.612;-2.416;2022-10-12T15:00:31;13.63;;;7.82;;
15177;SDS011;7689;53.612;-2.416;2022-10-12T15:02:58;14.02;;;8.07;;
15177;SDS011;7689;53.612;-2.416;2022-10-12T15:05:25;12.85;;;7.60;;
15177;SDS011;7689;53.612;-2.416;2022-10-12T15:07:53;12.02;;;6.55;;
15177;SDS011;7689;53.612;-2.416;2022-10-12T15:10:21;11.57;;;6.78;;
15177;SDS011;7689;53.612;-2.416;2022-10-12T15:12:47;11.27;;;6.20;;
15177;SDS011;7689;53.612;-2.416;2022-10-12T15:17:48;12.00;;;6.90;;
15177;SDS011;7689;53.612;-2.416;2022-10-12T15:20:14;8.75;;;6.53;;
15177;SDS011;7689;53.612;-2.416;2022-10-12T15:22:40;11.57;;;6.80;;
15177;SDS011;7689;53.612;-2.416;2022-10-12T15:25:13;13.15;;;6.72;;
15177;SDS011;7689;53.612;-2.416;2022-10-12T15:28:00;11.50;;;6.55;;
15177;SDS011;7689;53.612;-2.416;2022-10-12T15:30:27;10.98;;;6.60;;
15177;SDS011;7689;53.612;-2.416;2022-10-12T15:32:52;12.25;;;7.38;;
15177;SDS011;7689;53.612;-2.416;2022-10-12T15:35:22;8.93;;;6.38;;
15177;SDS011;7689;53.612;-2.416;2022-10-12T15:37:50;11.80;;;7.00;;
15177;SDS011;7689;53.612;-2.416;2022-10-12T15:40:17;11.10;;;7.20;;
15177;SDS011;7689;53.612;-2.416;2022-10-12T15:42:44;8.45;;;6.78;;
15177;SDS011;7689;53.612;-2.416;2022-10-12T15:47:47;9.60;;;7.38;;
15177;SDS011;7689;53.612;-2.416;2022-10-12T15:50:13;11.32;;;7.30;;
15177;SDS011;7689;53.612;-2.416;2022-10-12T15:52:40;12.75;;;7.35;;
15177;SDS011;7689;53.612;-2.416;2022-10-12T15:55:17;7.57;;;5.95;;
15177;SDS011;7689;53.612;-2.416;2022-10-12T15:57:47;8.10;;;6.70;;
15177;SDS011;7689;53.612;-2.416;2022-10-12T16:00:14;10.90;;;6.85;;
15177;SDS011;7689;53.612;-2.416;2022-10-12T16:02:40;9.93;;;6.85;;
15177;SDS011;7689;53.612;-2.416;2022-10-12T16:07:49;8.02;;;6.78;;
15177;SDS011;7689;53.612;-2.416;2022-10-12T16:10:16;8.38;;;6.40;;
15177;SDS011;7689;53.612;-2.416;2022-10-12T16:12:45;10.60;;;6.53;;
15177;SDS011;7689;53.612;-2.416;2022-10-12T16:15:13;7.00;;;6.18;;
15177;SDS011;7689;53.612;-2.416;2022-10-12T16:17:40;7.57;;;6.68;;
15177;SDS011;7689;53.612;-2.416;2022-10-12T16:20:06;8.95;;;6.35;;
15177;SDS011;7689;53.612;-2.416;2022-10-12T16:22:33;10.32;;;6.93;;
15177;SDS011;7689;53.612;-2.416;2022-10-12T16:25:00;9.15;;;7.43;;
15177;SDS011;7689;53.612;-2.416;2022-10-12T16:27:27;8.43;;;6.53;;
15177;SDS011;7689;53.612;-2.416;2022-10-12T16:29:54;7.00;;;5.57;;
15177;SDS011;7689;53.612;-2.416;2022-10-12T16:32:20;6.82;;;6.25;;
15177;SDS011;7689;53.612;-2.416;2022-10-12T16:34:45;8.57;;;6.25;;
15177;SDS011;7689;53.612;-2.416;2022-10-12T16:37:11;7.70;;;6.03;;
15177;SDS011;7689;53.612;-2.416;2022-10-12T16:39:37;6.63;;;5.45;;
15177;SDS011;7689;53.612;-2.416;2022-10-12T16:42:03;6.70;;;6.00;;
15177;SDS011;7689;53.612;-2.416;2022-10-12T16:44:28;7.03;;;6.07;;
15177;SDS011;7689;53.612;-2.416;2022-10-12T16:46:54;4.28;;;3.13;;
15177;SDS011;7689;53.612;-2.416;2022-10-12T16:49:20;2.53;;;1.92;;
15177;SDS011;7689;53.612;-2.416;2022-10-12T16:51:45;2.30;;;2.00;;
15177;SDS011;7689;53.612;-2.416;2022-10-12T16:54:12;2.20;;;2.00;;
15177;SDS011;7689;53.612;-2.416;2022-10-12T16:56:38;3.45;;;1.70;;
15177;SDS011;7689;53.612;-2.416;2022-10-12T16:59:04;3.08;;;2.60;;
15177;SDS011;7689;53.612;-2.416;2022-10-12T17:01:30;3.72;;;3.33;;
15177;SDS011;7689;53.612;-2.416;2022-10-12T17:03:55;3.45;;;3.15;;